Aneta, ND

9:45 PM CDT on June 22, 2017 (GMT -0500)
Cooperstown | | Change Station
Active Advisory: Wind Advisory Active Notice: Public Information Statement

Elev 1424 ft 47.42 °N, 98.11 °W | Updated -598 second ago

Clear
Clear
63 °F
Feels Like 63 °F
N
10
Wind Variable Wind from WNW

Today
High -- | Low -- °F
--% Chance of Precip.
Yesterday
High -- | Low -- °F
Precip. -- in
Pressure 29.75 in
Visibility 10.0 miles
Clouds Clear
Dew Point 43 °F
Humidity 48%
Rainfall 0.00 in
Snow Depth Not available.
5:34 AM 9:33 PM
Waning Crescent, 2% visible
METAR KS32 230255Z AUTO 29009KT 10SM CLR 17/06 A2975 RMK AO2
Pressure 29.75 in
Visibility 10.0 miles
Clouds Clear
Dew Point 43 °F
Humidity 48%
Rainfall 0.00 in
Snow Depth Not available.
5:34 AM 9:33 PM
Waning Crescent, 2% visible
METAR KS32 230255Z AUTO 29009KT 10SM CLR 17/06 A2975 RMK AO2

Get Your Daily Forecast Email!

Thanks for signing up!

Be on the lookout for a verification email in your inbox.

You'll start receiving severe weather alerts in your inbox..

×

10-Day Weather Forecast

Almanac

Astronomy

Jun. 22, 2017 Rise Set
Actual Time
Civil Twilight
Nautical Twilight
Astronomical Twilight
Moon
Length of Visible Light
Length of Day
Tomorrow will be .
, % of the Moon is Illuminated

Today's Extremes

State Highs State Lows

Community

WunderPhotos

Category 6

Welcome to Category 6. This is the collective home for Weather Underground's featured writeups by Dr. Jeff Masters (right), Bob Henson (left), Chris Burt, and other regular contributors.

Nearby

Air Quality

  Air Quality AQ Index Pollutant
Not available.

Snow Depth

Station Depth Elevation

Earthquake Activity

City Distance Mag. Time & Date
Minimum magnitude displayed is 2.5.

Coastal Water Temperatures

Place Temperature

Stations

Nearby Weather Stations

Station Location Temp. Windchill Dew Point Humidity Wind Precip. Elev Updated Type
                   

Watches & Warnings

Wind Advisory
Issued: 6:56 PM CDT Jun. 22, 2017 – National Weather Service

... Wind Advisory remains in effect until 10 PM CDT this evening...

* winds... northwest of 20 to 30 mph with gusts up to 50 mph.

* Visibility... localized blowing dust near open fields.

* Impacts... gusty winds will blow around unsecured objects. Wave
heights on Devils Lake could be 2 to 4 feet.

Precautionary/preparedness actions...

A Wind Advisory means that winds of 35 mph are expected. Winds
this strong can make driving difficult, especially for high
profile vehicles. Use extra caution.



Lee